createdAt,value
2023-05-18T00:01:14.474Z,2.40
2023-05-18T00:03:42.798Z,2.30
2023-05-18T00:06:12.249Z,2.47
2023-05-18T00:08:40.065Z,2.60
2023-05-18T00:11:07.927Z,2.38
2023-05-18T00:13:35.705Z,2.40
2023-05-18T00:16:03.622Z,2.30
2023-05-18T00:18:31.850Z,2.50
2023-05-18T00:20:59.757Z,2.42
2023-05-18T00:23:31.195Z,2.63
2023-05-18T00:25:59.574Z,2.30
2023-05-18T00:28:27.979Z,2.50
2023-05-18T00:30:56.770Z,2.65
2023-05-18T00:33:24.819Z,2.50
2023-05-18T00:35:52.688Z,2.50
2023-05-18T00:38:20.580Z,2.40
2023-05-18T00:40:49.623Z,2.70
2023-05-18T00:43:17.314Z,2.50
2023-05-18T00:45:45.008Z,2.50
2023-05-18T00:48:12.781Z,2.70
2023-05-18T00:50:41.479Z,2.45
2023-05-18T00:53:10.603Z,2.80
2023-05-18T00:55:38.435Z,2.70
2023-05-18T00:58:08.064Z,2.60
2023-05-18T01:00:37.648Z,2.60
2023-05-18T01:03:06.240Z,2.47
2023-05-18T01:05:33.991Z,2.47
2023-05-18T01:08:03.001Z,2.35
2023-05-18T01:10:34.145Z,2.38
2023-05-18T01:13:06.477Z,2.60
2023-05-18T01:15:38.247Z,2.70
2023-05-18T01:18:15.293Z,2.60
2023-05-18T01:20:48.857Z,2.50
2023-05-18T01:23:41.498Z,2.70
2023-05-18T01:26:16.819Z,2.63
2023-05-18T01:28:47.292Z,2.60
2023-05-18T01:31:16.368Z,2.57
2023-05-18T01:33:44.475Z,2.30
2023-05-18T01:36:12.482Z,2.72
2023-05-18T01:38:43.914Z,2.60
2023-05-18T01:41:19.955Z,2.40
2023-05-18T01:43:54.558Z,2.60
2023-05-18T01:46:37.506Z,2.75
2023-05-18T01:49:14.920Z,2.55
2023-05-18T01:51:46.267Z,2.40
2023-05-18T01:54:18.362Z,2.80
2023-05-18T01:56:49.824Z,2.53
2023-05-18T01:59:19.134Z,2.63
2023-05-18T02:01:46.852Z,2.50
2023-05-18T02:04:14.628Z,2.40
2023-05-18T02:06:42.537Z,2.75
2023-05-18T02:09:10.509Z,2.50
2023-05-18T02:11:38.176Z,2.47
2023-05-18T02:14:07.232Z,2.78
2023-05-18T02:16:35.005Z,2.45
2023-05-18T02:19:03.279Z,2.58
2023-05-18T02:21:31.097Z,2.95
2023-05-18T02:23:58.840Z,2.63
2023-05-18T02:26:27.363Z,2.60
2023-05-18T02:28:55.032Z,2.70
2023-05-18T02:31:24.154Z,2.70
2023-05-18T02:33:51.960Z,2.70
2023-05-18T02:36:22.567Z,2.60
2023-05-18T02:38:50.615Z,2.45
2023-05-18T02:41:18.318Z,2.63
2023-05-18T02:43:46.090Z,2.67
2023-05-18T02:46:13.804Z,2.67
2023-05-18T02:48:45.668Z,2.58
2023-05-18T02:51:13.565Z,2.75
2023-05-18T02:53:44.317Z,2.50
2023-05-18T02:56:13.123Z,2.70
2023-05-18T02:58:43.650Z,2.95
2023-05-18T03:01:12.323Z,2.40
2023-05-18T03:03:42.104Z,2.70
2023-05-18T03:06:11.450Z,2.60
2023-05-18T03:08:41.077Z,2.60
2023-05-18T03:11:09.002Z,2.55
2023-05-18T03:13:36.861Z,2.50
2023-05-18T03:16:05.399Z,2.60
2023-05-18T03:18:33.147Z,3.00
2023-05-18T03:21:02.061Z,2.70
2023-05-18T03:23:31.378Z,2.70
2023-05-18T03:25:59.039Z,2.73
2023-05-18T03:28:26.908Z,2.90
2023-05-18T03:30:54.631Z,2.70
2023-05-18T03:33:22.442Z,3.10
2023-05-18T03:35:52.588Z,2.97
2023-05-18T03:38:20.309Z,2.65
2023-05-18T03:40:49.678Z,2.77
2023-05-18T03:43:17.437Z,2.83
2023-05-18T03:45:45.233Z,2.83
2023-05-18T03:48:12.947Z,2.80
2023-05-18T03:50:40.722Z,2.85
2023-05-18T03:53:09.466Z,2.65
2023-05-18T03:55:37.275Z,2.60
2023-05-18T03:58:06.353Z,2.67
2023-05-18T04:00:33.997Z,2.53
2023-05-18T04:03:03.456Z,2.60
2023-05-18T04:05:31.512Z,2.90
2023-05-18T04:07:59.419Z,2.50
2023-05-18T04:10:27.384Z,2.53
2023-05-18T04:12:55.425Z,2.88
2023-05-18T04:15:24.912Z,2.83
2023-05-18T04:17:53.957Z,2.67
2023-05-18T04:20:21.890Z,2.80
2023-05-18T04:22:50.204Z,3.07
2023-05-18T04:25:18.994Z,2.70
2023-05-18T04:27:48.429Z,2.80
2023-05-18T04:30:18.834Z,2.40
2023-05-18T04:32:48.063Z,2.70
2023-05-18T04:35:16.076Z,2.40
2023-05-18T04:37:44.065Z,2.80
2023-05-18T04:40:14.037Z,2.70
2023-05-18T04:42:45.438Z,2.53
2023-05-18T04:45:15.833Z,2.40
2023-05-18T04:47:46.513Z,2.47
2023-05-18T04:50:17.917Z,2.60
2023-05-18T04:52:48.732Z,2.70
2023-05-18T04:55:23.063Z,2.63
2023-05-18T04:57:54.023Z,2.53
2023-05-18T05:00:22.210Z,2.58
2023-05-18T05:02:50.172Z,2.80
2023-05-18T05:05:19.820Z,2.53
2023-05-18T05:07:47.469Z,2.67
2023-05-18T05:10:15.464Z,2.80
2023-05-18T05:12:43.547Z,2.58
2023-05-18T05:15:11.531Z,2.20
2023-05-18T05:17:39.534Z,2.30
2023-05-18T05:20:08.208Z,2.67
2023-05-18T05:22:37.307Z,2.50
2023-05-18T05:25:06.293Z,2.45
2023-05-18T05:27:35.470Z,2.60
2023-05-18T05:30:03.403Z,2.50
2023-05-18T05:32:31.331Z,2.60
2023-05-18T05:34:58.950Z,2.42
2023-05-18T05:37:26.638Z,2.55
2023-05-18T05:39:56.566Z,2.50
2023-05-18T05:42:25.518Z,2.53
2023-05-18T05:44:53.233Z,2.80
2023-05-18T05:47:20.908Z,2.50
2023-05-18T05:49:48.776Z,2.70
2023-05-18T05:52:16.874Z,2.45
2023-05-18T05:54:44.642Z,2.22
2023-05-18T05:57:13.744Z,2.60
2023-05-18T05:59:41.709Z,2.40
2023-05-18T06:02:35.227Z,2.63
2023-05-18T06:05:03.064Z,2.22
2023-05-18T06:07:31.290Z,2.40
2023-05-18T06:09:59.099Z,2.30
2023-05-18T06:12:28.197Z,2.40
2023-05-18T06:14:58.345Z,2.35
2023-05-18T06:17:26.437Z,2.47
2023-05-18T06:19:54.258Z,2.30
2023-05-18T06:22:22.128Z,2.60
2023-05-18T06:24:49.866Z,2.65
2023-05-18T06:27:17.860Z,2.47
2023-05-18T06:29:47.191Z,2.35
2023-05-18T06:32:15.136Z,3.42
2023-05-18T06:34:45.725Z,2.87
2023-05-18T06:37:13.592Z,3.30
2023-05-18T06:39:41.347Z,2.70
2023-05-18T06:42:09.316Z,2.70
2023-05-18T06:44:37.008Z,2.80
2023-05-18T06:47:06.755Z,2.88
2023-05-18T06:49:34.390Z,2.92
2023-05-18T06:52:02.062Z,2.50
2023-05-18T06:54:30.695Z,2.63
2023-05-18T06:56:58.463Z,2.60
2023-05-18T06:59:26.262Z,2.70
2023-05-18T07:01:54.127Z,2.58
2023-05-18T07:04:23.327Z,2.63
2023-05-18T07:06:51.508Z,3.10
2023-05-18T07:09:19.275Z,2.67
2023-05-18T07:11:47.012Z,3.38
2023-05-18T07:14:14.676Z,3.47
2023-05-18T07:16:43.989Z,6.37
2023-05-18T07:19:11.731Z,4.60
2023-05-18T07:21:40.997Z,5.40
2023-05-18T07:24:08.789Z,3.07
2023-05-18T07:26:36.946Z,2.42
2023-05-18T07:29:04.884Z,3.22
2023-05-18T07:31:33.464Z,3.80
2023-05-18T07:34:01.193Z,2.97
2023-05-18T07:36:29.045Z,2.75
2023-05-18T07:39:00.031Z,2.70
2023-05-18T07:41:28.083Z,2.90
2023-05-18T07:43:55.822Z,2.85
2023-05-18T07:46:23.613Z,2.63
2023-05-18T07:48:51.514Z,3.08
2023-05-18T07:51:19.230Z,3.15
2023-05-18T07:53:47.379Z,3.13
2023-05-18T07:56:16.807Z,2.80
2023-05-18T07:58:44.596Z,3.20
2023-05-18T08:01:12.559Z,2.72
2023-05-18T08:03:40.390Z,2.72
2023-05-18T08:06:08.393Z,2.90
2023-05-18T08:08:37.945Z,2.80
2023-05-18T08:11:06.306Z,2.75
2023-05-18T08:13:35.407Z,3.03
2023-05-18T08:16:11.848Z,2.72
2023-05-18T08:18:40.456Z,2.60
2023-05-18T08:21:09.956Z,4.07
2023-05-18T08:23:38.711Z,2.92
2023-05-18T08:26:08.171Z,3.00
2023-05-18T08:28:37.344Z,3.80
2023-05-18T08:31:06.413Z,2.97
2023-05-18T08:33:34.166Z,2.83
2023-05-18T08:36:01.960Z,3.03
2023-05-18T08:38:29.900Z,3.40
2023-05-18T08:41:05.234Z,3.53
2023-05-18T08:43:38.121Z,2.97
2023-05-18T08:46:14.810Z,2.55
2023-05-18T08:48:45.712Z,2.80
2023-05-18T08:51:15.074Z,2.38
2023-05-18T08:53:44.880Z,2.53
2023-05-18T08:56:13.823Z,2.90
2023-05-18T08:58:46.513Z,2.80
2023-05-18T09:01:16.032Z,2.65
2023-05-18T09:03:45.560Z,3.00
2023-05-18T09:06:15.738Z,2.80
2023-05-18T09:08:43.538Z,2.43
2023-05-18T09:11:12.826Z,2.80
2023-05-18T09:13:41.068Z,2.95
2023-05-18T09:16:09.008Z,2.63
2023-05-18T09:18:38.258Z,2.63
2023-05-18T09:21:06.247Z,2.47
2023-05-18T09:23:35.126Z,2.45
2023-05-18T09:26:04.816Z,2.50
2023-05-18T09:28:36.815Z,2.60
2023-05-18T09:31:05.107Z,2.80
2023-05-18T09:33:35.338Z,2.50
2023-05-18T09:36:05.885Z,2.63
2023-05-18T09:38:38.234Z,2.60
2023-05-18T09:41:10.907Z,3.00
2023-05-18T09:43:38.731Z,2.70
2023-05-18T09:46:10.917Z,2.40
2023-05-18T09:48:42.607Z,2.53
2023-05-18T09:51:16.866Z,2.60
2023-05-18T09:53:50.539Z,2.70
2023-05-18T09:56:19.417Z,2.70
2023-05-18T09:58:47.666Z,2.50
2023-05-18T10:01:15.794Z,2.90
2023-05-18T10:03:45.607Z,2.80
2023-05-18T10:06:15.274Z,2.60
2023-05-18T10:08:43.527Z,3.00
2023-05-18T10:11:11.912Z,2.67
2023-05-18T10:13:42.431Z,2.72
2023-05-18T10:16:10.929Z,2.88
2023-05-18T10:18:39.837Z,2.95
2023-05-18T10:21:08.293Z,3.00
2023-05-18T10:23:38.312Z,2.60
2023-05-18T10:26:08.031Z,2.70
2023-05-18T10:28:39.926Z,2.45
2023-05-18T10:31:09.227Z,2.78
2023-05-18T10:33:39.004Z,2.80
2023-05-18T10:36:08.722Z,2.80
2023-05-18T10:38:39.927Z,2.90
2023-05-18T10:41:10.834Z,2.60
2023-05-18T10:43:39.059Z,2.63
2023-05-18T10:46:08.540Z,2.60
2023-05-18T10:48:40.839Z,2.72
2023-05-18T10:51:09.191Z,3.03
2023-05-18T10:53:43.727Z,2.50
2023-05-18T10:56:11.856Z,2.45
2023-05-18T10:58:40.682Z,2.60
2023-05-18T11:01:11.782Z,2.67
2023-05-18T11:03:40.935Z,2.60
2023-05-18T11:06:10.817Z,2.70
2023-05-18T11:08:49.062Z,2.92
2023-05-18T11:11:19.223Z,2.78
2023-05-18T11:13:50.336Z,2.50
2023-05-18T11:16:20.536Z,2.97
2023-05-18T11:18:50.539Z,2.50
2023-05-18T11:21:51.630Z,2.40
2023-05-18T11:24:23.434Z,2.50
2023-05-18T11:26:53.049Z,2.50
2023-05-18T11:29:23.401Z,2.40
2023-05-18T11:31:53.594Z,2.38
2023-05-18T11:34:52.308Z,2.40
2023-05-18T11:37:50.636Z,2.25
2023-05-18T11:40:47.628Z,2.65
2023-05-18T11:43:22.950Z,2.30
2023-05-18T11:45:55.788Z,2.70
2023-05-18T11:48:25.723Z,2.30
2023-05-18T11:50:55.252Z,2.50
2023-05-18T11:53:24.274Z,2.13
2023-05-18T11:55:55.175Z,2.50
2023-05-18T11:58:25.425Z,2.40
2023-05-18T12:00:54.346Z,2.43
2023-05-18T12:03:25.974Z,2.47
2023-05-18T12:05:54.638Z,2.50
2023-05-18T12:08:29.224Z,2.40
2023-05-18T12:10:58.391Z,2.30
2023-05-18T12:13:26.949Z,2.25
2023-05-18T12:15:58.971Z,2.33
2023-05-18T12:18:29.566Z,2.50
2023-05-18T12:20:57.431Z,2.30
2023-05-18T12:23:37.999Z,2.33
2023-05-18T12:26:08.309Z,2.50
2023-05-18T12:28:36.606Z,2.47
2023-05-18T12:31:08.400Z,2.53
2023-05-18T12:33:36.249Z,2.50
2023-05-18T12:36:04.041Z,2.50
2023-05-18T12:38:32.713Z,2.25
2023-05-18T12:41:00.569Z,2.53
2023-05-18T12:43:34.707Z,2.53
2023-05-18T12:46:03.040Z,2.13
2023-05-18T12:48:37.169Z,2.22
2023-05-18T12:51:06.916Z,2.40
2023-05-18T12:53:42.740Z,2.40
2023-05-18T12:56:11.631Z,2.20
2023-05-18T12:58:41.628Z,2.07
2023-05-18T13:01:10.737Z,2.63
2023-05-18T13:03:41.897Z,2.38
2023-05-18T13:06:10.580Z,2.20
2023-05-18T13:08:38.380Z,2.50
2023-05-18T13:11:13.742Z,2.50
2023-05-18T13:14:05.293Z,2.30
2023-05-18T13:16:35.579Z,2.22
2023-05-18T13:19:05.096Z,2.75
2023-05-18T13:21:34.071Z,3.00
2023-05-18T13:24:01.926Z,2.30
2023-05-18T13:26:30.112Z,2.40
2023-05-18T13:29:00.025Z,2.90
2023-05-18T13:31:30.203Z,2.50
2023-05-18T13:33:58.289Z,2.20
2023-05-18T13:36:26.337Z,3.22
2023-05-18T13:38:54.147Z,2.40
2023-05-18T13:41:21.863Z,2.30
2023-05-18T13:43:49.635Z,2.20
2023-05-18T13:46:18.971Z,2.25
2023-05-18T13:48:48.255Z,2.47
2023-05-18T13:51:16.343Z,3.17
2023-05-18T13:53:44.212Z,2.42
2023-05-18T13:56:12.175Z,2.15
2023-05-18T13:58:40.068Z,2.25
2023-05-18T14:01:13.428Z,2.20
2023-05-18T14:03:41.766Z,2.20
2023-05-18T14:06:11.108Z,3.35
2023-05-18T14:08:39.010Z,2.78
2023-05-18T14:11:06.889Z,2.70
2023-05-18T14:13:34.658Z,2.42
2023-05-18T14:16:02.390Z,2.65
2023-05-18T14:18:30.270Z,2.70
2023-05-18T14:21:02.051Z,2.50
2023-05-18T14:23:31.145Z,2.00
2023-05-18T14:25:59.005Z,2.28
2023-05-18T14:28:26.846Z,2.20
2023-05-18T14:30:54.749Z,2.08
2023-05-18T14:33:22.613Z,2.58
2023-05-18T14:35:50.483Z,2.50
2023-05-18T14:38:18.759Z,2.40
2023-05-18T14:40:47.839Z,2.17
2023-05-18T14:43:15.598Z,2.20
2023-05-18T14:45:46.419Z,2.30
2023-05-18T14:48:18.430Z,2.00
2023-05-18T14:50:46.133Z,2.40
2023-05-18T14:53:13.830Z,2.30
2023-05-18T14:55:41.637Z,2.10
2023-05-18T14:58:14.777Z,2.50
2023-05-18T15:00:43.864Z,2.50
2023-05-18T15:03:11.618Z,2.65
2023-05-18T15:05:39.658Z,2.60
2023-05-18T15:08:07.461Z,2.20
2023-05-18T15:10:35.346Z,2.40
2023-05-18T15:13:03.096Z,2.00
2023-05-18T15:15:32.544Z,2.20
2023-05-18T15:18:00.568Z,2.30
2023-05-18T15:20:28.363Z,2.10
2023-05-18T15:22:56.166Z,2.00
2023-05-18T15:25:24.006Z,2.17
2023-05-18T15:27:52.874Z,1.80
2023-05-18T15:30:20.970Z,2.42
2023-05-18T15:32:50.149Z,2.35
2023-05-18T15:35:18.027Z,2.00
2023-05-18T15:37:46.026Z,2.05
2023-05-18T15:40:14.088Z,2.33
2023-05-18T15:42:41.786Z,2.60
2023-05-18T15:45:09.925Z,2.40
2023-05-18T15:47:38.162Z,2.13
2023-05-18T15:50:08.550Z,2.28
2023-05-18T15:52:36.225Z,2.20
2023-05-18T15:55:04.102Z,2.10
2023-05-18T15:57:33.086Z,2.25
2023-05-18T16:00:01.167Z,2.40
2023-05-18T16:02:29.079Z,2.30
2023-05-18T16:04:56.802Z,2.20
2023-05-18T16:07:25.900Z,2.50
2023-05-18T16:09:53.579Z,2.47
2023-05-18T16:12:23.366Z,2.20
2023-05-18T16:14:51.845Z,2.33
2023-05-18T16:17:19.532Z,2.20
2023-05-18T16:19:47.399Z,2.40
2023-05-18T16:22:15.096Z,2.00
2023-05-18T16:24:44.294Z,2.40
2023-05-18T16:27:12.048Z,2.00
2023-05-18T16:29:41.404Z,2.25
2023-05-18T16:32:09.225Z,2.45
2023-05-18T16:34:37.191Z,2.13
2023-05-18T16:37:05.403Z,2.20
2023-05-18T16:39:33.196Z,2.70
2023-05-18T16:42:02.292Z,2.10
2023-05-18T16:44:30.130Z,6.10
2023-05-18T16:46:57.989Z,4.22
2023-05-18T16:49:25.785Z,3.22
2023-05-18T16:51:53.562Z,2.47
2023-05-18T16:54:21.305Z,2.45
2023-05-18T16:56:49.014Z,2.15
2023-05-18T16:59:18.195Z,2.50
2023-05-18T17:01:45.972Z,2.40
2023-05-18T17:04:13.805Z,2.60
2023-05-18T17:06:42.100Z,2.35
2023-05-18T17:09:09.776Z,2.42
2023-05-18T17:11:37.594Z,2.60
2023-05-18T17:14:05.527Z,2.10
2023-05-18T17:16:40.215Z,2.30
2023-05-18T17:19:08.158Z,2.17
2023-05-18T17:21:35.958Z,2.50
2023-05-18T17:24:05.378Z,2.58
2023-05-18T17:26:33.503Z,2.33
2023-05-18T17:29:01.543Z,2.55
2023-05-18T17:31:30.393Z,2.45
2023-05-18T17:33:59.640Z,2.45
2023-05-18T17:36:27.397Z,2.67
2023-05-18T17:38:56.190Z,2.63
2023-05-18T17:41:25.927Z,2.30
2023-05-18T17:43:53.774Z,2.30
2023-05-18T17:46:21.784Z,2.60
2023-05-18T17:48:49.550Z,2.77
2023-05-18T17:51:18.701Z,2.53
2023-05-18T17:53:46.388Z,2.53
2023-05-18T17:56:14.145Z,2.45
2023-05-18T17:58:41.873Z,2.55
2023-05-18T18:01:10.608Z,2.90
2023-05-18T18:03:38.753Z,2.40
2023-05-18T18:06:07.894Z,2.97
2023-05-18T18:08:37.698Z,2.90
2023-05-18T18:11:08.375Z,2.60
2023-05-18T18:13:36.853Z,3.20
2023-05-18T18:16:04.831Z,2.72
2023-05-18T18:18:32.603Z,2.72
2023-05-18T18:21:00.266Z,2.60
2023-05-18T18:23:28.381Z,2.45
2023-05-18T18:25:57.565Z,3.07
2023-05-18T18:28:25.308Z,2.60
2023-05-18T18:30:53.105Z,2.50
2023-05-18T18:33:20.937Z,2.63
2023-05-18T18:35:49.559Z,2.92
2023-05-18T18:38:17.307Z,2.80
2023-05-18T18:40:44.986Z,2.90
2023-05-18T18:43:14.102Z,2.80
2023-05-18T18:45:41.854Z,3.05
2023-05-18T18:48:09.788Z,2.78
2023-05-18T18:50:37.469Z,2.85
2023-05-18T18:53:05.375Z,2.70
2023-05-18T18:55:33.391Z,2.80
2023-05-18T18:58:01.490Z,2.50
2023-05-18T19:00:31.746Z,2.30
2023-05-18T19:02:59.665Z,2.20
2023-05-18T19:05:28.536Z,2.20
2023-05-18T19:07:56.682Z,2.30
2023-05-18T19:10:25.459Z,2.40
2023-05-18T19:12:53.150Z,2.35
2023-05-18T19:15:22.155Z,2.60
2023-05-18T19:17:53.964Z,2.80
2023-05-18T19:20:23.230Z,2.40
2023-05-18T19:22:53.211Z,2.60
2023-05-18T19:25:21.000Z,2.63
2023-05-18T19:27:48.768Z,2.47
2023-05-18T19:30:21.114Z,2.83
2023-05-18T19:32:51.105Z,3.03
2023-05-18T19:35:20.080Z,2.90
2023-05-18T19:37:48.328Z,3.20
2023-05-18T19:40:16.861Z,4.40
2023-05-18T19:42:44.662Z,4.60
2023-05-18T19:45:12.433Z,3.00
2023-05-18T19:47:40.496Z,2.75
2023-05-18T19:50:10.719Z,2.60
2023-05-18T19:52:38.717Z,2.70
2023-05-18T19:55:07.853Z,2.70
2023-05-18T19:57:36.152Z,2.70
2023-05-18T20:00:05.965Z,2.80
2023-05-18T20:02:33.850Z,2.70
2023-05-18T20:05:01.867Z,2.80
2023-05-18T20:07:31.296Z,2.50
2023-05-18T20:09:59.354Z,2.50
2023-05-18T20:12:28.316Z,2.70
2023-05-18T20:14:56.262Z,2.85
2023-05-18T20:17:25.841Z,2.80
2023-05-18T20:19:53.940Z,2.47
2023-05-18T20:22:21.963Z,2.40
2023-05-18T20:24:51.255Z,2.47
2023-05-18T20:27:19.158Z,2.30
2023-05-18T20:29:47.140Z,2.35
2023-05-18T20:32:15.004Z,2.33
2023-05-18T20:34:44.500Z,2.50
2023-05-18T20:37:13.935Z,2.33
2023-05-18T20:39:42.675Z,2.35
2023-05-18T20:42:12.462Z,2.37
2023-05-18T20:44:40.653Z,2.10
2023-05-18T20:47:08.785Z,2.65
2023-05-18T20:49:36.557Z,2.50
2023-05-18T20:52:04.535Z,2.47
2023-05-18T20:54:32.372Z,2.40
2023-05-18T20:57:00.286Z,2.20
2023-05-18T20:59:29.786Z,2.30
2023-05-18T21:01:57.741Z,2.40
2023-05-18T21:04:25.753Z,2.17
2023-05-18T21:06:53.552Z,2.60
2023-05-18T21:09:21.204Z,2.30
2023-05-18T21:11:49.406Z,2.40
2023-05-18T21:14:17.573Z,2.20
2023-05-18T21:16:47.237Z,2.30
2023-05-18T21:19:15.088Z,2.20
2023-05-18T21:21:42.995Z,2.30
2023-05-18T21:24:11.108Z,2.38
2023-05-18T21:26:39.510Z,2.10
2023-05-18T21:29:07.517Z,2.28
2023-05-18T21:31:35.427Z,2.13
2023-05-18T21:34:04.633Z,2.28
2023-05-18T21:36:34.155Z,1.80
2023-05-18T21:39:02.853Z,1.90
2023-05-18T21:41:30.991Z,2.30
2023-05-18T21:43:59.066Z,2.05
2023-05-18T21:46:26.996Z,2.10
2023-05-18T21:48:55.167Z,2.00
2023-05-18T21:51:25.387Z,2.20
2023-05-18T21:53:53.371Z,1.80
2023-05-18T21:56:21.518Z,2.05
2023-05-18T21:58:49.216Z,1.90
2023-05-18T22:01:19.695Z,2.15
2023-05-18T22:03:48.070Z,1.80
2023-05-18T22:06:16.444Z,2.10
2023-05-18T22:08:46.213Z,2.15
2023-05-18T22:11:14.537Z,2.10
2023-05-18T22:13:42.321Z,2.05
2023-05-18T22:16:10.182Z,1.92
2023-05-18T22:18:38.050Z,1.90
2023-05-18T22:21:05.925Z,2.00
2023-05-18T22:23:33.696Z,2.05
2023-05-18T22:26:02.876Z,2.03
2023-05-18T22:28:30.725Z,2.10
2023-05-18T22:30:58.605Z,2.00
2023-05-18T22:33:26.437Z,2.00
2023-05-18T22:35:54.238Z,2.17
2023-05-18T22:38:22.122Z,2.03
2023-05-18T22:40:53.924Z,2.10
2023-05-18T22:43:23.371Z,2.10
2023-05-18T22:45:51.390Z,2.20
2023-05-18T22:48:19.666Z,1.98
2023-05-18T22:50:48.373Z,2.00
2023-05-18T22:53:16.153Z,2.00
2023-05-18T22:55:44.128Z,2.00
2023-05-18T22:58:12.099Z,2.30
2023-05-18T23:00:41.310Z,1.90
2023-05-18T23:03:09.260Z,1.90
2023-05-18T23:05:41.239Z,1.88
2023-05-18T23:08:09.559Z,1.73
2023-05-18T23:10:37.623Z,1.95
2023-05-18T23:13:05.440Z,2.00
2023-05-18T23:15:33.201Z,2.05
2023-05-18T23:18:03.031Z,2.00
2023-05-18T23:20:34.763Z,2.03
2023-05-18T23:23:02.757Z,1.90
2023-05-18T23:25:30.801Z,1.83
2023-05-18T23:27:58.784Z,2.00
2023-05-18T23:30:27.348Z,2.00
2023-05-18T23:32:56.983Z,1.95
2023-05-18T23:35:26.913Z,2.10
2023-05-18T23:37:56.633Z,1.90
2023-05-18T23:40:25.916Z,1.90
2023-05-18T23:42:54.691Z,1.98
2023-05-18T23:45:23.553Z,2.00
2023-05-18T23:47:53.061Z,2.25
2023-05-18T23:50:21.972Z,1.92
2023-05-18T23:52:54.702Z,2.10
2023-05-18T23:55:24.031Z,2.10
2023-05-18T23:57:52.687Z,2.10
